Time;durP1;ratioP1;P1;durP2;ratioP2;P2;SDS_P1;SDS_P2;PMS_P1;PMS_P2;Temp;Humidity;BMP_temperature;BMP_pressure;BME280_temperature;BME280_humidity;BME280_pressure;Samples;Min_cycle;Max_cycle;Signal;HPM_P1;HPM_P2
2023/12/16 00:01:21;;;;;;;9.90;2.40;;;;;;;12.63;54.10;103924.72;5030396;28;20037;-45
2023/12/16 00:03:46;;;;;;;14.93;2.10;;;;;;;12.43;54.41;103929.81;5031250;28;20029;-45
2023/12/16 00:06:12;;;;;;;10.45;2.00;;;;;;;12.28;55.36;103930.69;5030887;28;20033;-46
2023/12/16 00:08:37;;;;;;;10.68;2.22;;;;;;;12.44;54.29;103922.88;5031361;28;20037;-46
2023/12/16 00:11:03;;;;;;;15.07;2.33;;;;;;;12.38;54.79;103922.53;5031901;28;20565;-46
2023/12/16 00:13:28;;;;;;;10.38;2.25;;;;;;;12.37;55.05;103912.88;5031309;28;20476;-50
2023/12/16 00:15:53;;;;;;;10.82;2.28;;;;;;;12.25;55.50;103915.75;5031374;28;20097;-49
2023/12/16 00:18:19;;;;;;;15.60;2.35;;;;;;;12.24;55.49;103916.53;5031648;28;20128;-45
2023/12/16 00:20:44;;;;;;;11.02;2.53;;;;;;;12.16;55.95;103921.34;5030942;28;20042;-47
2023/12/16 00:23:09;;;;;;;9.77;2.13;;;;;;;12.25;55.76;103918.34;5031642;28;20038;-46
2023/12/16 00:25:35;;;;;;;10.75;2.40;;;;;;;12.31;55.71;103921.31;5030986;28;20057;-47
2023/12/16 00:28:00;;;;;;;13.55;2.22;;;;;;;12.02;56.82;103914.44;5031708;28;20495;-49
2023/12/16 00:30:26;;;;;;;8.90;2.30;;;;;;;12.14;56.22;103920.34;5030687;28;20056;-48
2023/12/16 00:32:51;;;;;;;11.88;2.47;;;;;;;12.15;56.42;103927.38;5031315;28;20044;-46
2023/12/16 00:35:16;;;;;;;10.38;2.13;;;;;;;12.12;56.31;103924.63;5031629;28;20033;-51
2023/12/16 00:37:42;;;;;;;14.32;2.47;;;;;;;11.94;57.53;103910.53;5030801;28;20040;-49
2023/12/16 00:40:08;;;;;;;11.30;2.40;;;;;;;11.85;58.24;103911.69;5031110;28;20030;-47
2023/12/16 00:42:33;;;;;;;11.40;2.28;;;;;;;11.91;58.00;103912.03;5030575;28;20033;-46
2023/12/16 00:44:59;;;;;;;12.80;2.55;;;;;;;11.93;58.28;103899.97;5031521;28;20064;-51
2023/12/16 00:47:25;;;;;;;14.60;2.67;;;;;;;11.91;58.44;103906.81;5030933;28;20038;-43
2023/12/16 00:49:51;;;;;;;12.88;2.50;;;;;;;11.90;58.51;103900.69;5031105;28;20032;-46
2023/12/16 00:52:16;;;;;;;19.40;2.50;;;;;;;11.68;59.81;103903.78;5030969;28;20033;-48
2023/12/16 00:54:42;;;;;;;11.35;2.75;;;;;;;11.69;59.90;103908.19;5030519;28;20147;-45
2023/12/16 00:57:07;;;;;;;12.35;2.72;;;;;;;11.63;60.49;103913.09;5030994;28;20416;-50
2023/12/16 00:59:32;;;;;;;12.27;2.70;;;;;;;11.68;60.68;103906.41;5030297;28;20052;-44
2023/12/16 01:01:57;;;;;;;12.70;3.03;;;;;;;11.80;59.93;103903.59;5030472;28;20033;-46
2023/12/16 01:04:23;;;;;;;16.92;2.88;;;;;;;11.78;60.41;103903.50;5030564;28;20470;-46
2023/12/16 01:06:48;;;;;;;10.73;2.85;;;;;;;11.60;60.67;103907.66;5030300;28;20052;-46
2023/12/16 01:09:14;;;;;;;15.13;3.00;;;;;;;11.65;60.82;103907.91;5030171;28;20099;-48
2023/12/16 01:11:41;;;;;;;13.13;3.10;;;;;;;11.64;60.64;103903.53;5030241;28;20041;-46
2023/12/16 01:14:06;;;;;;;13.65;2.90;;;;;;;11.72;60.54;103892.69;5029516;28;20030;-45
2023/12/16 01:16:31;;;;;;;13.00;2.92;;;;;;;11.62;61.11;103900.81;5030136;28;20041;-45
2023/12/16 01:18:57;;;;;;;16.35;3.60;;;;;;;11.64;60.90;103903.53;5030809;28;20070;-46
2023/12/16 01:21:22;;;;;;;13.80;3.38;;;;;;;11.44;61.78;103898.88;5031081;28;20479;-52
2023/12/16 01:23:47;;;;;;;13.45;3.47;;;;;;;11.44;62.24;103891.94;5030409;28;20102;-48
2023/12/16 01:26:13;;;;;;;11.45;3.35;;;;;;;11.45;62.32;103893.72;5030725;28;20092;-46
2023/12/16 01:28:38;;;;;;;13.65;3.30;;;;;;;11.38;62.72;103891.56;5030350;28;20057;-44
2023/12/16 01:31:04;;;;;;;20.48;3.97;;;;;;;11.53;62.03;103889.81;5030436;28;20415;-43
2023/12/16 01:33:29;;;;;;;15.32;3.88;;;;;;;11.38;62.56;103891.56;5030141;28;20099;-47
2023/12/16 01:35:54;;;;;;;14.18;4.10;;;;;;;11.46;62.50;103907.69;5031303;28;20034;-45
2023/12/16 01:38:20;;;;;;;17.38;4.05;;;;;;;11.33;63.27;103912.22;5031424;28;20059;-46
2023/12/16 01:40:45;;;;;;;14.18;4.00;;;;;;;11.53;62.48;103907.22;5030496;28;20037;-47
2023/12/16 01:43:10;;;;;;;18.38;4.20;;;;;;;11.50;62.68;103899.22;5030029;28;20036;-50
2023/12/16 01:45:36;;;;;;;19.63;4.22;;;;;;;11.43;63.23;103895.34;5029631;28;20524;-49
2023/12/16 01:48:03;;;;;;;18.30;4.38;;;;;;;11.55;62.51;103890.81;5030168;28;20034;-50
2023/12/16 01:50:29;;;;;;;14.20;4.40;;;;;;;11.49;62.96;103890.47;5029526;28;20044;-50
2023/12/16 01:52:56;;;;;;;17.90;4.63;;;;;;;11.49;63.06;103893.09;5030113;28;20080;-47
2023/12/16 01:55:21;;;;;;;17.90;4.45;;;;;;;11.55;63.15;103897.75;5028745;28;20036;-47
2023/12/16 01:57:47;;;;;;;13.88;4.53;;;;;;;11.41;63.49;103894.34;5029581;28;20034;-49
2023/12/16 02:00:14;;;;;;;18.67;4.78;;;;;;;11.33;63.78;103885.19;5029920;28;20045;-46
2023/12/16 02:02:40;;;;;;;22.25;5.07;;;;;;;11.40;63.84;103892.56;5029539;28;20033;-46
2023/12/16 02:05:06;;;;;;;17.80;4.70;;;;;;;11.39;64.19;103901.22;5029457;28;20037;-46
2023/12/16 02:07:32;;;;;;;16.70;4.47;;;;;;;11.54;63.49;103895.97;5029770;28;20049;-46
2023/12/16 02:09:57;;;;;;;18.98;4.75;;;;;;;11.32;64.35;103893.81;5028555;28;20041;-46
2023/12/16 02:12:25;;;;;;;20.05;5.40;;;;;;;11.55;63.59;103890.81;5030214;28;20049;-46
2023/12/16 02:14:51;;;;;;;18.25;4.90;;;;;;;11.33;64.60;103890.41;5030522;28;20029;-45
2023/12/16 02:17:16;;;;;;;20.88;5.00;;;;;;;11.38;64.58;103886.34;5030971;28;20044;-46
2023/12/16 02:19:45;;;;;;;17.17;5.03;;;;;;;11.63;63.55;103891.28;5031960;28;20122;-44
2023/12/16 02:22:10;;;;;;;17.33;4.68;;;;;;;11.40;64.22;103900.41;5035106;28;20057;-44
2023/12/16 02:24:38;;;;;;;15.55;4.65;;;;;;;11.60;63.89;103891.97;5034768;28;20033;-48
2023/12/16 02:27:03;;;;;;;19.95;5.30;;;;;;;11.39;64.69;103898.59;5035099;28;20120;-44
2023/12/16 02:29:29;;;;;;;20.83;4.88;;;;;;;11.70;63.51;103899.56;5034314;28;20128;-47
2023/12/16 02:31:54;;;;;;;19.30;4.47;;;;;;;11.64;63.71;103901.81;5034448;28;20518;-46
2023/12/16 02:34:19;;;;;;;15.48;4.47;;;;;;;11.77;62.84;103899.09;5034972;28;20053;-49
2023/12/16 02:36:44;;;;;;;17.30;5.38;;;;;;;11.74;62.93;103892.81;5033822;28;20061;-46
2023/12/16 02:39:10;;;;;;;19.73;4.95;;;;;;;11.80;62.90;103906.22;5035100;28;20045;-45
2023/12/16 02:41:35;;;;;;;19.70;4.80;;;;;;;11.76;62.86;103894.72;5033620;28;20038;-45
2023/12/16 02:44:00;;;;;;;17.25;4.97;;;;;;;11.70;63.19;103891.72;5033752;28;20044;-45
2023/12/16 02:46:26;;;;;;;21.65;5.22;;;;;;;11.66;63.32;103889.72;5032981;28;20132;-49
2023/12/16 02:48:51;;;;;;;16.17;4.43;;;;;;;11.73;63.17;103885.75;5033328;28;20033;-47
2023/12/16 02:51:18;;;;;;;21.48;5.05;;;;;;;11.62;63.47;103886.84;5032809;28;20033;-45
2023/12/16 02:53:43;;;;;;;19.95;4.65;;;;;;;11.39;64.45;103883.84;5032817;28;20049;-48
2023/12/16 02:56:09;;;;;;;22.67;4.68;;;;;;;11.17;65.10;103878.16;5033123;28;20042;-48
2023/12/16 02:58:34;;;;;;;18.13;4.80;;;;;;;11.46;64.60;103877.25;5032728;28;20029;-50
2023/12/16 03:00:59;;;;;;;15.73;4.70;;;;;;;11.46;64.74;103884.19;5033044;28;20045;-48
2023/12/16 03:03:25;;;;;;;19.23;5.03;;;;;;;11.30;65.53;103879.78;5032503;28;20068;-44
2023/12/16 03:05:50;;;;;;;20.80;5.28;;;;;;;11.39;65.62;103878.59;5032817;28;20040;-48
2023/12/16 03:08:15;;;;;;;20.42;4.80;;;;;;;11.37;64.77;103880.22;5032930;28;20037;-50
2023/12/16 03:10:41;;;;;;;20.15;5.13;;;;;;;11.22;66.29;103871.47;5032255;28;20057;-50
2023/12/16 03:13:06;;;;;;;18.38;5.15;;;;;;;11.31;65.63;103877.25;5033062;28;20431;-45
2023/12/16 03:15:31;;;;;;;19.05;5.13;;;;;;;11.43;64.96;103878.78;5032295;28;20049;-50
2023/12/16 03:17:57;;;;;;;19.38;5.35;;;;;;;11.17;65.96;103878.16;5032640;28;20033;-45
2023/12/16 03:20:22;;;;;;;16.33;4.82;;;;;;;11.24;66.73;103876.81;5032900;28;20040;-46
2023/12/16 03:22:48;;;;;;;25.40;5.30;;;;;;;11.13;66.45;103885.72;5032123;28;20052;-48
2023/12/16 03:25:14;;;;;;;16.45;4.80;;;;;;;11.28;66.28;103878.81;5031992;28;20056;-50
2023/12/16 03:27:39;;;;;;;21.52;4.95;;;;;;;11.18;66.58;103890.41;5032091;28;20057;-45
2023/12/16 03:30:05;;;;;;;28.98;5.55;;;;;;;11.25;66.58;103889.06;5032470;28;20084;-47
2023/12/16 03:32:30;;;;;;;25.17;5.32;;;;;;;10.97;67.60;103892.66;5030973;28;20438;-48
2023/12/16 03:34:55;;;;;;;18.02;5.28;;;;;;;11.13;67.66;103899.69;5032657;28;20037;-44
2023/12/16 03:37:21;;;;;;;19.85;5.20;;;;;;;11.09;67.83;103891.59;5032296;28;20695;-46
2023/12/16 03:39:46;;;;;;;19.08;5.10;;;;;;;10.95;68.19;103890.75;5032069;28;20514;-46
2023/12/16 03:42:11;;;;;;;19.10;5.10;;;;;;;11.07;67.94;103885.34;5032289;28;20041;-44
2023/12/16 03:44:37;;;;;;;24.83;5.22;;;;;;;10.89;68.30;103882.56;5031744;28;20038;-43
2023/12/16 03:47:02;;;;;;;21.17;5.07;;;;;;;11.00;67.92;103878.88;5032131;28;20035;-45
2023/12/16 03:49:28;;;;;;;18.70;4.80;;;;;;;11.14;67.76;103885.81;5031722;28;20041;-46
2023/12/16 03:51:56;;;;;;;20.45;4.97;;;;;;;11.14;67.29;103891.03;5031986;28;20037;-44
2023/12/16 03:54:21;;;;;;;19.02;5.10;;;;;;;11.10;67.20;103883.81;5032114;28;20030;-44
2023/12/16 03:56:46;;;;;;;20.02;4.90;;;;;;;11.07;67.83;103880.13;5032155;28;20037;-44
2023/12/16 03:59:12;;;;;;;17.05;5.10;;;;;;;11.14;67.09;103877.09;5032219;28;20068;-44
2023/12/16 04:01:43;;;;;;;24.88;5.75;;;;;;;11.00;68.14;103878.88;5031331;28;20037;-47
2023/12/16 04:04:08;;;;;;;20.42;5.57;;;;;;;10.86;68.86;103882.38;5032295;28;20488;-44
2023/12/16 04:06:34;;;;;;;24.77;5.60;;;;;;;10.71;70.26;103876.25;5031503;28;20038;-47
2023/12/16 04:08:59;;;;;;;19.95;5.00;;;;;;;10.91;69.24;103878.34;5031910;28;20037;-50
2023/12/16 04:11:24;;;;;;;24.52;5.03;;;;;;;10.91;69.54;103871.41;5031592;28;20038;-47
2023/12/16 04:13:50;;;;;;;24.02;5.63;;;;;;;10.79;69.26;103872.38;5042838;28;20454;-48
2023/12/16 04:16:15;;;;;;;21.60;5.18;;;;;;;11.13;68.24;103863.13;5051025;28;20064;-45
2023/12/16 04:18:41;;;;;;;19.25;4.93;;;;;;;10.98;69.83;103870.03;5050480;28;20047;-47
2023/12/16 04:21:06;;;;;;;23.13;5.05;;;;;;;10.86;69.93;103865.00;5051358;28;20040;-49
2023/12/16 04:23:31;;;;;;;24.20;5.25;;;;;;;10.84;70.11;103860.50;5051089;28;20033;-46
2023/12/16 04:25:57;;;;;;;21.73;5.43;;;;;;;10.97;69.59;103852.59;5051438;28;20131;-45
2023/12/16 04:28:23;;;;;;;27.90;5.53;;;;;;;11.01;69.74;103853.66;5051156;28;20032;-45
2023/12/16 04:30:48;;;;;;;22.52;4.88;;;;;;;10.85;70.02;103863.22;5050674;28;20491;-48
2023/12/16 04:33:13;;;;;;;19.05;5.28;;;;;;;10.93;69.68;103854.13;5051188;28;20041;-47
2023/12/16 04:35:39;;;;;;;22.20;5.35;;;;;;;10.95;69.40;103862.03;5050548;28;20064;-46
2023/12/16 04:38:04;;;;;;;21.13;4.82;;;;;;;10.76;69.71;103867.88;5051514;28;20048;-49
2023/12/16 04:40:29;;;;;;;19.10;5.03;;;;;;;10.92;70.06;103862.75;5049385;28;20582;-46
2023/12/16 04:42:55;;;;;;;25.10;5.20;;;;;;;10.91;70.01;103862.69;5050112;28;20128;-46
2023/12/16 04:45:20;;;;;;;26.30;5.15;;;;;;;10.96;69.65;103874.28;5051340;28;20570;-46
2023/12/16 04:47:46;;;;;;;22.95;5.00;;;;;;;10.97;69.58;103874.38;5050509;28;20033;-47
2023/12/16 04:50:11;;;;;;;20.00;4.75;;;;;;;11.06;68.83;103873.09;5050923;28;20033;-51
2023/12/16 04:52:36;;;;;;;22.02;5.32;;;;;;;10.96;68.94;103863.84;5050567;28;20120;-45
2023/12/16 04:55:03;;;;;;;23.73;4.82;;;;;;;10.98;69.53;103870.03;5051294;28;20060;-45
2023/12/16 04:57:28;;;;;;;22.77;5.35;;;;;;;10.97;69.75;103871.78;5050930;28;20060;-49
2023/12/16 04:59:53;;;;;;;28.70;5.53;;;;;;;10.94;69.70;103871.59;5050783;28;20459;-49
2023/12/16 05:02:19;;;;;;;18.23;4.63;;;;;;;10.97;69.67;103873.50;5050706;28;20037;-45
2023/12/16 05:04:44;;;;;;;21.75;5.00;;;;;;;10.84;70.10;103870.94;5050230;28;20047;-46
2023/12/16 05:07:09;;;;;;;23.02;4.80;;;;;;;10.80;70.41;103877.69;5050891;28;20044;-45
2023/12/16 05:09:35;;;;;;;17.65;5.20;;;;;;;10.99;69.74;103877.06;5050800;28;20095;-46
2023/12/16 05:12:00;;;;;;;26.30;5.32;;;;;;;10.78;70.75;103881.94;5050710;28;20568;-47
2023/12/16 05:14:25;;;;;;;21.48;5.13;;;;;;;10.76;70.88;103880.91;5050453;28;20032;-44
2023/12/16 05:16:51;;;;;;;16.08;4.35;;;;;;;11.02;69.71;103882.50;5050689;28;20032;-47
2023/12/16 05:19:16;;;;;;;22.83;4.63;;;;;;;10.92;69.76;103877.50;5050800;28;20621;-50
2023/12/16 05:21:41;;;;;;;22.85;5.60;;;;;;;10.79;69.85;103868.06;5050194;28;20091;-45
2023/12/16 05:24:07;;;;;;;26.83;4.90;;;;;;;10.56;71.91;103861.44;5050686;28;20048;-49
2023/12/16 05:26:32;;;;;;;22.65;5.28;;;;;;;10.78;71.54;103865.38;5050233;28;20041;-46
2023/12/16 05:28:57;;;;;;;23.17;4.32;;;;;;;10.73;71.16;103856.38;5049757;28;20036;-46
2023/12/16 05:31:23;;;;;;;21.45;4.70;;;;;;;10.84;71.11;103865.72;5051035;28;20085;-48
2023/12/16 05:33:48;;;;;;;22.10;4.63;;;;;;;10.70;71.50;103858.78;5050396;28;20029;-45
2023/12/16 05:36:14;;;;;;;21.38;3.92;;;;;;;10.96;70.64;103846.47;5051620;28;20036;-44
2023/12/16 05:38:40;;;;;;;20.00;4.25;;;;;;;10.88;70.54;103859.88;5049716;28;20033;-46
2023/12/16 05:41:06;;;;;;;21.58;4.63;;;;;;;10.95;70.25;103859.44;5052083;28;20095;-47
2023/12/16 05:43:31;;;;;;;24.38;4.85;;;;;;;10.70;71.44;103861.38;5051402;28;20124;-50
2023/12/16 05:45:57;;;;;;;21.80;4.05;;;;;;;10.67;71.58;103861.22;5051592;28;20087;-43
2023/12/16 05:48:22;;;;;;;22.63;4.55;;;;;;;10.66;72.15;103865.53;5050669;28;20033;-44
2023/12/16 05:50:47;;;;;;;25.15;4.65;;;;;;;10.85;71.25;103858.00;5049517;28;20033;-45
2023/12/16 05:53:12;;;;;;;27.33;4.82;;;;;;;10.89;70.87;103861.69;5049479;28;20037;-49
2023/12/16 05:55:39;;;;;;;25.23;4.70;;;;;;;10.79;71.28;103861.94;5048896;28;20503;-46
2023/12/16 05:58:04;;;;;;;28.95;4.38;;;;;;;10.81;71.49;103863.81;5050030;28;20037;-46
2023/12/16 06:00:29;;;;;;;21.77;4.43;;;;;;;10.85;71.78;103870.16;5049211;28;20553;-44
2023/12/16 06:02:55;;;;;;;20.73;4.28;;;;;;;10.71;72.11;103877.13;5050335;28;20040;-45
2023/12/16 06:05:20;;;;;;;27.65;4.18;;;;;;;10.84;71.71;103864.03;5049958;28;20067;-47
2023/12/16 06:07:46;;;;;;;22.52;3.85;;;;;;;10.88;71.76;103866.00;5049950;28;20040;-43
2023/12/16 06:10:12;;;;;;;24.00;4.30;;;;;;;10.78;72.18;103868.88;5050711;28;20037;-45
2023/12/16 06:12:37;;;;;;;24.45;4.55;;;;;;;10.66;72.61;103880.28;5048779;28;20466;-45
2023/12/16 06:15:03;;;;;;;34.72;4.60;;;;;;;10.64;72.61;103877.56;5050749;28;20037;-46
2023/12/16 06:17:28;;;;;;;18.42;4.28;;;;;;;10.79;72.42;103886.34;5048348;28;20039;-44
2023/12/16 06:19:54;;;;;;;22.90;4.40;;;;;;;10.95;71.80;103875.09;5050095;28;20048;-47
2023/12/16 06:22:19;;;;;;;18.73;4.05;;;;;;;10.96;71.73;103872.59;5049773;28;20041;-50
2023/12/16 06:24:44;;;;;;;19.65;4.28;;;;;;;10.86;72.03;103877.13;5049224;28;20512;-46
2023/12/16 06:27:10;;;;;;;24.63;4.35;;;;;;;10.70;73.05;103879.66;5049691;28;20036;-44
2023/12/16 06:29:35;;;;;;;21.88;4.47;;;;;;;10.67;73.08;103872.56;5049066;28;20044;-45
2023/12/16 06:32:00;;;;;;;20.60;4.10;;;;;;;10.43;73.97;103877.16;5049225;28;20037;-44
2023/12/16 06:34:25;;;;;;;20.40;4.13;;;;;;;10.66;73.74;103872.44;5049442;28;20029;-45
2023/12/16 06:36:51;;;;;;;21.88;4.10;;;;;;;10.79;72.98;103875.91;5049550;28;20025;-46
2023/12/16 06:39:16;;;;;;;22.92;4.20;;;;;;;10.63;74.07;103878.38;5049796;28;20402;-46
2023/12/16 06:41:41;;;;;;;26.38;4.78;;;;;;;10.70;73.48;103875.34;5049157;28;20118;-49
2023/12/16 06:44:07;;;;;;;22.55;4.30;;;;;;;10.97;72.36;103883.94;5049169;28;20032;-45
2023/12/16 06:46:32;;;;;;;22.10;3.97;;;;;;;10.97;72.00;103882.22;5049190;28;20029;-47
2023/12/16 06:48:57;;;;;;;26.90;4.55;;;;;;;10.90;72.13;103884.38;5049390;28;20067;-46
2023/12/16 06:51:23;;;;;;;24.42;4.70;;;;;;;10.91;71.75;103886.19;5049203;28;20146;-46
2023/12/16 06:53:48;;;;;;;25.25;4.47;;;;;;;10.97;72.06;103884.84;5049526;28;20041;-48
2023/12/16 06:56:13;;;;;;;27.65;4.80;;;;;;;11.06;71.21;103892.28;5049651;28;20041;-44
2023/12/16 06:58:40;;;;;;;23.88;4.32;;;;;;;10.99;71.49;103890.13;5049546;28;20071;-48
2023/12/16 07:01:08;;;;;;;20.02;4.25;;;;;;;10.98;71.26;103889.22;5049206;28;20067;-45
2023/12/16 07:03:34;;;;;;;21.35;4.45;;;;;;;10.94;70.84;103888.94;5049026;28;20072;-46
2023/12/16 07:06:01;;;;;;;26.77;4.28;;;;;;;10.85;71.75;103888.41;5048631;28;20041;-49
2023/12/16 07:08:26;;;;;;;19.45;4.10;;;;;;;10.74;72.30;103899.88;5052637;28;20403;-47
2023/12/16 07:10:52;;;;;;;24.80;4.30;;;;;;;10.34;74.08;103896.56;5052968;28;20036;-49
2023/12/16 07:13:17;;;;;;;25.20;4.63;;;;;;;10.55;73.57;103898.75;5052978;28;20033;-46
2023/12/16 07:15:42;;;;;;;19.25;4.85;;;;;;;10.53;73.93;103896.88;5052596;28;20040;-46
2023/12/16 07:18:08;;;;;;;25.00;4.25;;;;;;;10.78;72.64;103894.06;5052983;28;20148;-45
2023/12/16 07:20:34;;;;;;;23.08;4.43;;;;;;;10.73;72.59;103892.91;5052227;28;20064;-46
2023/12/16 07:22:59;;;;;;;25.05;4.68;;;;;;;10.87;71.88;103892.91;5052753;28;20028;-45
2023/12/16 07:25:24;;;;;;;25.15;4.93;;;;;;;10.69;72.99;103897.00;5052675;28;20041;-46
2023/12/16 07:27:50;;;;;;;25.92;4.68;;;;;;;10.23;74.14;103901.09;5052578;28;20059;-48
2023/12/16 07:30:16;;;;;;;22.48;4.63;;;;;;;10.44;74.56;103914.56;5052638;28;20037;-44
2023/12/16 07:32:42;;;;;;;22.65;4.55;;;;;;;10.68;73.15;103910.84;5050915;28;20700;-48
2023/12/16 07:35:12;;;;;;;22.67;5.03;;;;;;;10.52;73.70;103909.03;5052707;28;20128;-44
2023/12/16 07:37:39;;;;;;;20.08;4.32;;;;;;;10.87;71.90;103915.50;5052341;28;20068;-45
2023/12/16 07:40:04;;;;;;;24.73;4.72;;;;;;;10.72;72.59;103915.47;5052889;28;20102;-51
2023/12/16 07:42:30;;;;;;;25.58;4.55;;;;;;;10.79;71.53;103915.03;5052935;28;20044;-44
2023/12/16 07:44:55;;;;;;;24.02;4.80;;;;;;;10.67;72.99;103910.78;5053537;28;20556;-45
2023/12/16 07:47:20;;;;;;;26.38;4.47;;;;;;;10.55;73.69;103903.97;5052118;28;20158;-47
2023/12/16 07:49:46;;;;;;;32.25;4.97;;;;;;;10.74;73.29;103903.41;5050401;28;20028;-48
2023/12/16 07:52:12;;;;;;;22.27;5.50;;;;;;;10.67;72.38;103902.97;5051733;28;20037;-48
2023/12/16 07:54:37;;;;;;;24.60;4.63;;;;;;;10.76;73.45;103907.03;5050548;28;20521;-45
2023/12/16 07:57:02;;;;;;;25.05;4.70;;;;;;;10.56;74.35;103911.00;5051906;28;20040;-45
2023/12/16 07:59:30;;;;;;;17.88;4.15;;;;;;;10.52;74.31;103913.34;5051760;28;20087;-47
2023/12/16 08:01:56;;;;;;;26.33;4.82;;;;;;;10.68;74.35;103910.84;5051798;28;20068;-50
2023/12/16 08:04:21;;;;;;;19.65;4.53;;;;;;;10.89;73.56;103911.28;5052034;28;20056;-50
2023/12/16 08:06:47;;;;;;;21.15;4.75;;;;;;;10.66;74.31;103909.88;5051562;28;20029;-47
2023/12/16 08:09:13;;;;;;;26.20;4.70;;;;;;;11.10;72.78;103911.66;5051299;28;20449;-48
2023/12/16 08:11:38;;;;;;;21.38;4.72;;;;;;;11.13;73.00;103912.75;5050970;28;20111;-44
2023/12/16 08:14:06;;;;;;;22.73;5.15;;;;;;;10.70;73.94;103918.78;5052188;28;20514;-48
2023/12/16 08:16:31;;;;;;;19.15;4.80;;;;;;;10.97;74.21;103918.78;5050942;28;20040;-50
2023/12/16 08:18:56;;;;;;;23.88;4.68;;;;;;;10.85;74.49;103920.63;5051858;28;20029;-49
2023/12/16 08:21:22;;;;;;;18.45;4.28;;;;;;;11.32;72.88;103914.72;5051739;28;20041;-52
2023/12/16 08:23:47;;;;;;;24.88;5.00;;;;;;;11.08;73.87;103908.97;5051357;28;20033;-45
2023/12/16 08:26:13;;;;;;;24.30;4.72;;;;;;;11.33;73.36;103914.81;5052405;28;20037;-44
2023/12/16 08:28:40;;;;;;;24.77;4.40;;;;;;;11.46;72.84;103908.59;5052040;28;20052;-48
2023/12/16 08:31:06;;;;;;;23.52;3.92;;;;;;;11.38;73.46;103926.44;5052099;28;20410;-45
2023/12/16 08:33:31;;;;;;;28.92;5.10;;;;;;;11.88;71.62;103933.72;5051445;28;20037;-45
2023/12/16 08:35:56;;;;;;;23.38;4.82;;;;;;;11.55;73.27;103935.25;5051480;28;20041;-46
2023/12/16 08:38:22;;;;;;;23.55;4.60;;;;;;;11.78;72.21;103933.97;5051760;28;20063;-46
2023/12/16 08:40:47;;;;;;;20.02;4.45;;;;;;;11.40;73.42;103934.38;5051527;28;20078;-45
2023/12/16 08:43:13;;;;;;;19.02;4.90;;;;;;;11.88;72.11;103923.25;5051488;28;20041;-49
2023/12/16 08:45:39;;;;;;;17.63;5.10;;;;;;;11.91;72.65;103931.25;5049648;28;20069;-49
2023/12/16 08:48:04;;;;;;;23.30;4.95;;;;;;;11.77;72.53;103935.69;5050435;28;20037;-45
2023/12/16 08:50:30;;;;;;;23.80;4.55;;;;;;;12.08;72.02;103929.56;5052697;28;20059;-45
2023/12/16 08:52:55;;;;;;;18.13;4.93;;;;;;;11.82;72.17;103940.31;5052864;28;20037;-47
2023/12/16 08:55:24;;;;;;;20.92;5.72;;;;;;;11.90;72.18;103947.75;5051628;28;20385;-48
2023/12/16 08:57:49;;;;;;;22.52;4.68;;;;;;;12.31;71.33;103939.63;5050719;28;20044;-44
2023/12/16 09:00:15;;;;;;;26.90;5.03;;;;;;;12.44;70.72;103949.03;5050752;28;20036;-47
2023/12/16 09:02:40;;;;;;;20.63;5.22;;;;;;;11.95;72.59;103954.16;5049903;28;20033;-46
2023/12/16 09:05:07;;;;;;;20.40;5.40;;;;;;;12.29;71.54;103954.31;5050723;28;20045;-48
2023/12/16 09:07:32;;;;;;;28.67;5.70;;;;;;;12.15;72.31;103955.25;5048857;28;20040;-46
2023/12/16 09:09:58;;;;;;;27.80;5.85;;;;;;;12.49;71.38;103964.16;5050635;28;20045;-50
2023/12/16 09:12:23;;;;;;;32.17;5.70;;;;;;;12.49;71.39;103974.63;5050620;28;20043;-48
2023/12/16 09:14:49;;;;;;;27.08;5.20;;;;;;;12.07;72.78;103981.00;5050173;28;20043;-48
2023/12/16 09:17:14;;;;;;;23.35;5.78;;;;;;;12.33;73.38;103973.69;5050403;28;20457;-47
2023/12/16 09:19:39;;;;;;;22.33;6.18;;;;;;;12.55;73.39;103984.53;5049818;28;20044;-47
2023/12/16 09:22:05;;;;;;;23.50;6.97;;;;;;;12.46;74.30;103984.03;5050262;28;20069;-47
2023/12/16 09:24:31;;;;;;;28.10;7.70;;;;;;;12.37;74.70;103992.28;5050046;28;20054;-51
2023/12/16 09:26:56;;;;;;;25.25;8.50;;;;;;;12.14;76.06;103985.75;5051059;28;20094;-45
2023/12/16 09:29:21;;;;;;;25.20;7.70;;;;;;;12.63;75.47;103991.06;5049821;28;20091;-46
2023/12/16 09:31:47;;;;;;;26.85;8.00;;;;;;;12.45;75.02;103987.44;5049525;28;20033;-48
2023/12/16 09:34:13;;;;;;;24.52;8.00;;;;;;;12.47;75.88;103983.22;5050263;28;20043;-48
2023/12/16 09:36:38;;;;;;;22.63;7.80;;;;;;;12.49;75.95;103986.81;5049667;28;20041;-44
2023/12/16 09:39:04;;;;;;;26.50;8.00;;;;;;;12.33;76.23;103997.22;5049947;28;20098;-47
2023/12/16 09:41:37;;;;;;;22.33;7.93;;;;;;;12.51;75.57;103998.25;5049772;28;20068;-50
2023/12/16 09:44:05;;;;;;;21.52;7.95;;;;;;;12.65;74.85;104005.16;5050161;28;20522;-49
2023/12/16 09:46:32;;;;;;;26.48;7.93;;;;;;;12.42;75.96;103998.66;5049466;28;20064;-47
2023/12/16 09:48:59;;;;;;;26.98;8.10;;;;;;;12.26;77.40;104008.19;5050093;28;20037;-50
2023/12/16 09:51:24;;;;;;;22.27;8.00;;;;;;;12.23;77.06;104013.25;5049950;28;20039;-45
2023/12/16 09:53:51;;;;;;;21.33;7.88;;;;;;;12.33;77.24;104015.53;5049384;28;20127;-45
2023/12/16 09:56:17;;;;;;;26.25;8.30;;;;;;;12.24;77.80;104009.81;5049858;28;20040;-45
2023/12/16 09:58:44;;;;;;;22.27;8.00;;;;;;;12.30;77.40;104025.84;5049113;28;20037;-45
2023/12/16 10:01:10;;;;;;;28.20;8.07;;;;;;;12.14;78.27;104005.75;5049733;28;20127;-44
2023/12/16 10:03:40;;;;;;;28.55;8.05;;;;;;;12.43;76.81;104010.94;5049344;28;20095;-44
2023/12/16 10:06:07;;;;;;;22.50;7.43;;;;;;;12.64;76.32;104011.19;5050157;28;20071;-46
2023/12/16 10:08:40;;;;;;;21.10;7.57;;;;;;;12.50;77.59;104010.44;5049608;28;20033;-45
2023/12/16 10:11:06;;;;;;;20.77;6.97;;;;;;;12.22;77.47;104011.44;5049925;28;20036;-45
2023/12/16 10:13:33;;;;;;;23.60;7.18;;;;;;;12.28;78.11;104007.44;5049428;28;20045;-45
2023/12/16 10:15:59;;;;;;;26.17;7.50;;;;;;;12.56;76.86;104005.53;5050053;28;20061;-46
2023/12/16 10:18:28;;;;;;;23.83;6.60;;;;;;;12.01;78.50;104009.41;5049929;28;20060;-48
2023/12/16 10:20:55;;;;;;;22.25;7.00;;;;;;;12.20;78.55;104014.84;5049650;28;20136;-45
2023/12/16 10:23:22;;;;;;;26.63;7.05;;;;;;;12.52;76.75;104015.75;5049541;28;20029;-49
2023/12/16 10:25:48;;;;;;;21.90;7.05;;;;;;;12.48;76.63;104013.78;5049287;28;20112;-48
2023/12/16 10:28:13;;;;;;;23.55;7.55;;;;;;;12.43;77.90;104013.56;5049604;28;20032;-45
2023/12/16 10:30:39;;;;;;;22.60;6.97;;;;;;;12.00;79.12;104019.78;5047746;28;20091;-50
2023/12/16 10:33:08;;;;;;;21.52;7.70;;;;;;;11.89;80.27;104013.03;5049665;28;20044;-46
2023/12/16 10:35:33;;;;;;;21.75;7.90;;;;;;;12.01;80.71;104012.03;5049022;28;20099;-47
2023/12/16 10:37:59;;;;;;;20.33;8.68;;;;;;;12.28;79.28;104007.44;5050058;28;20045;-46
2023/12/16 10:40:24;;;;;;;22.35;8.40;;;;;;;12.37;79.55;104000.13;5050659;28;20060;-45
2023/12/16 10:42:49;;;;;;;23.80;8.80;;;;;;;12.26;80.01;104001.22;5054505;28;20060;-50
2023/12/16 10:45:15;;;;;;;20.33;8.93;;;;;;;12.30;79.63;103990.13;5055531;28;20036;-44
2023/12/16 10:47:43;;;;;;;27.52;9.02;;;;;;;12.48;79.29;103996.38;5053394;28;20060;-47
2023/12/16 10:50:12;;;;;;;18.83;9.13;;;;;;;12.58;78.97;103990.81;5053247;28;20036;-47
2023/12/16 10:52:47;;;;;;;26.50;8.75;;;;;;;12.73;78.33;103989.88;5053269;28;20060;-46
2023/12/16 10:55:19;;;;;;;20.25;8.68;;;;;;;12.76;78.29;103984.78;5052944;28;20028;-47
2023/12/16 10:57:49;;;;;;;25.55;9.73;;;;;;;12.50;80.17;103991.25;5053340;28;20029;-48
2023/12/16 11:00:23;;;;;;;21.75;9.48;;;;;;;12.44;80.60;103986.53;5052647;28;20127;-47
2023/12/16 11:03:07;;;;;;;22.92;10.15;;;;;;;12.33;80.29;103981.53;5052932;28;20056;-45
2023/12/16 11:05:39;;;;;;;23.27;9.97;;;;;;;12.79;78.59;103979.72;5052794;28;20071;-48
2023/12/16 11:08:06;;;;;;;25.70;9.88;;;;;;;12.34;81.32;103973.78;5053009;28;20503;-46
2023/12/16 11:10:32;;;;;;;22.52;9.13;;;;;;;12.25;81.34;103972.38;5053749;28;20049;-47